createdAt,value
2023-03-10T00:01:55.122Z,5.40
2023-03-10T00:04:57.730Z,5.03
2023-03-10T00:08:00.167Z,5.43
2023-03-10T00:11:02.522Z,6.18
2023-03-10T00:14:04.893Z,5.55
2023-03-10T00:17:07.531Z,4.63
2023-03-10T00:20:12.395Z,5.45
2023-03-10T00:23:14.753Z,5.20
2023-03-10T00:26:18.360Z,5.13
2023-03-10T00:29:22.159Z,5.40
2023-03-10T00:35:26.893Z,4.70
2023-03-10T00:38:29.581Z,7.13
2023-03-10T00:41:34.181Z,5.43
2023-03-10T00:44:36.549Z,5.68
2023-03-10T00:47:38.876Z,5.97
2023-03-10T00:50:41.183Z,7.35
2023-03-10T00:53:44.072Z,5.97
2023-03-10T00:56:46.645Z,5.70
2023-03-10T00:59:52.095Z,6.78
2023-03-10T01:02:54.957Z,6.65
2023-03-10T01:05:58.062Z,5.68
2023-03-10T01:09:01.106Z,5.13
2023-03-10T01:12:03.580Z,5.28
2023-03-10T01:15:06.891Z,6.15
2023-03-10T01:18:09.213Z,8.80
2023-03-10T01:21:20.842Z,11.90
2023-03-10T01:24:23.419Z,7.63
2023-03-10T01:27:25.685Z,8.80
2023-03-10T01:30:29.399Z,7.85
2023-03-10T01:33:31.820Z,7.88
2023-03-10T01:36:34.466Z,7.68
2023-03-10T01:39:37.433Z,8.27
2023-03-10T01:42:39.771Z,6.35
2023-03-10T01:45:42.019Z,7.50
2023-03-10T01:48:44.512Z,8.23
2023-03-10T01:51:51.396Z,7.93
2023-03-10T01:54:57.512Z,7.43
2023-03-10T01:58:00.597Z,8.05
2023-03-10T02:01:03.512Z,7.35
2023-03-10T02:04:09.681Z,10.48
2023-03-10T02:07:13.858Z,10.90
2023-03-10T02:10:17.109Z,12.10
2023-03-10T02:13:19.569Z,7.85
2023-03-10T02:16:24.175Z,9.35
2023-03-10T02:19:35.766Z,11.02
2023-03-10T02:22:40.561Z,10.45
2023-03-10T02:25:50.512Z,10.25
2023-03-10T02:28:53.629Z,9.68
2023-03-10T02:31:56.905Z,7.68
2023-03-10T02:34:59.450Z,7.57
2023-03-10T02:38:01.856Z,8.98
2023-03-10T02:41:20.785Z,6.60
2023-03-10T02:44:24.722Z,9.48
2023-03-10T02:47:27.128Z,9.88
2023-03-10T02:50:34.988Z,11.47
2023-03-10T02:53:37.508Z,12.90
2023-03-10T02:56:42.511Z,14.73
2023-03-10T02:59:46.241Z,13.65
2023-03-10T03:02:48.878Z,9.48
2023-03-10T03:05:52.069Z,9.85
2023-03-10T03:08:55.084Z,10.30
2023-03-10T03:12:00.082Z,11.52
2023-03-10T03:15:02.925Z,10.10
2023-03-10T03:18:06.162Z,10.70
2023-03-10T03:21:13.052Z,10.02
2023-03-10T03:24:16.105Z,12.70
2023-03-10T03:27:18.545Z,12.02
2023-03-10T03:30:27.185Z,20.08
2023-03-10T03:33:32.731Z,12.10
2023-03-10T03:36:35.457Z,11.02
2023-03-10T03:39:38.304Z,9.25
2023-03-10T03:42:44.551Z,12.40
2023-03-10T03:45:47.556Z,13.25
2023-03-10T03:48:50.293Z,9.30
2023-03-10T03:51:53.262Z,12.60
2023-03-10T03:54:58.852Z,11.70
2023-03-10T03:58:01.457Z,9.55
2023-03-10T04:01:03.922Z,12.48
2023-03-10T04:04:12.248Z,12.63
2023-03-10T04:07:15.350Z,9.60
2023-03-10T04:10:23.657Z,14.73
2023-03-10T04:13:26.489Z,18.63
2023-03-10T04:16:28.976Z,15.60
2023-03-10T04:19:32.271Z,17.42
2023-03-10T04:22:41.221Z,15.27
2023-03-10T04:25:44.818Z,13.30
2023-03-10T04:28:48.292Z,15.57
2023-03-10T04:32:04.913Z,15.32
2023-03-10T04:35:12.966Z,16.10
2023-03-10T04:38:16.415Z,15.32
2023-03-10T04:41:19.067Z,16.92
2023-03-10T04:44:30.941Z,18.27
2023-03-10T04:47:36.616Z,17.08
2023-03-10T04:50:39.195Z,18.17
2023-03-10T04:53:41.552Z,17.55
2023-03-10T04:56:45.143Z,25.70
2023-03-10T04:59:47.603Z,24.17
2023-03-10T05:02:50.345Z,26.08
2023-03-10T05:05:53.190Z,15.30
2023-03-10T05:08:56.589Z,18.58
2023-03-10T05:12:00.069Z,17.48
2023-03-10T05:15:07.058Z,17.58
2023-03-10T05:18:11.194Z,17.40
2023-03-10T05:21:15.690Z,16.90
2023-03-10T05:24:20.344Z,18.52
2023-03-10T05:27:23.250Z,18.25
2023-03-10T05:33:31.642Z,17.73
2023-03-10T05:36:36.120Z,19.92
2023-03-10T05:39:41.331Z,21.83
2023-03-10T05:42:48.829Z,23.08
2023-03-10T05:45:58.370Z,21.48
2023-03-10T05:49:02.400Z,18.98
2023-03-10T05:52:05.555Z,16.77
2023-03-10T05:55:12.223Z,17.70
2023-03-10T05:58:14.749Z,19.13
2023-03-10T06:01:17.851Z,21.65
2023-03-10T06:04:20.216Z,21.23
2023-03-10T06:07:22.673Z,24.20
2023-03-10T06:10:25.037Z,29.65
2023-03-10T06:13:27.657Z,42.70
2023-03-10T06:16:30.173Z,26.95
2023-03-10T06:19:32.513Z,39.88
2023-03-10T06:22:35.010Z,30.30
2023-03-10T06:25:38.015Z,32.88
2023-03-10T06:28:41.942Z,19.75
2023-03-10T06:34:46.684Z,25.33
2023-03-10T06:37:49.041Z,29.05
2023-03-10T06:40:51.341Z,24.70
2023-03-10T06:43:53.682Z,28.80
2023-03-10T06:46:56.100Z,30.08
2023-03-10T06:49:58.649Z,26.45
2023-03-10T06:53:00.977Z,25.58
2023-03-10T06:56:04.913Z,24.23
2023-03-10T06:59:07.457Z,33.97
2023-03-10T07:02:12.497Z,60.83
2023-03-10T07:05:15.265Z,37.25
2023-03-10T07:08:17.602Z,32.28
2023-03-10T07:11:19.945Z,29.67
2023-03-10T07:14:22.420Z,36.05
2023-03-10T07:17:25.116Z,31.45
2023-03-10T07:20:27.519Z,27.75
2023-03-10T07:23:29.943Z,24.35
2023-03-10T07:26:32.294Z,26.27
2023-03-10T07:29:34.891Z,28.98
2023-03-10T07:32:37.368Z,62.47
2023-03-10T07:35:40.080Z,39.13
2023-03-10T07:38:42.506Z,30.40
2023-03-10T07:41:45.079Z,34.85
2023-03-10T07:44:47.459Z,42.03
2023-03-10T07:47:51.488Z,30.85
2023-03-10T07:50:59.982Z,37.20
2023-03-10T07:54:02.369Z,31.27
2023-03-10T07:57:04.809Z,25.95
2023-03-10T08:00:07.937Z,27.00
2023-03-10T08:03:16.333Z,30.25
2023-03-10T08:06:22.022Z,39.60
2023-03-10T08:09:24.568Z,42.58
2023-03-10T08:12:27.005Z,31.85
2023-03-10T08:15:30.165Z,23.63
2023-03-10T08:18:32.953Z,25.25
2023-03-10T08:21:35.378Z,25.38
2023-03-10T08:24:39.300Z,23.77
2023-03-10T08:27:41.840Z,21.52
2023-03-10T08:31:01.222Z,23.63
2023-03-10T08:34:06.041Z,25.48
2023-03-10T08:37:08.419Z,26.13
2023-03-10T08:40:13.929Z,31.75
2023-03-10T08:43:16.364Z,37.50
2023-03-10T08:46:19.668Z,35.70
2023-03-10T08:49:22.847Z,32.92
2023-03-10T08:52:25.345Z,25.92
2023-03-10T08:55:27.685Z,25.77
2023-03-10T08:58:30.066Z,25.85
2023-03-10T09:01:34.758Z,25.70
2023-03-10T09:04:37.153Z,25.48
2023-03-10T09:07:39.648Z,43.70
2023-03-10T09:10:44.480Z,42.63
2023-03-10T09:13:48.300Z,75.18
2023-03-10T09:16:50.837Z,80.57
2023-03-10T09:19:53.307Z,52.53
2023-03-10T09:22:56.380Z,24.05
2023-03-10T09:25:58.830Z,21.75
2023-03-10T09:29:02.120Z,16.92
2023-03-10T09:32:05.743Z,17.40
2023-03-10T09:35:09.221Z,19.48
2023-03-10T09:38:13.051Z,25.92
2023-03-10T09:41:56.583Z,30.23
2023-03-10T09:45:43.163Z,18.83
2023-03-10T09:49:20.816Z,19.50
2023-03-10T09:52:30.026Z,20.08
2023-03-10T09:55:47.553Z,25.52
2023-03-10T09:59:02.311Z,42.50
2023-03-10T10:02:16.043Z,46.63
2023-03-10T10:05:26.519Z,65.05
2023-03-10T10:08:31.152Z,26.55
2023-03-10T10:11:36.955Z,40.92
2023-03-10T10:14:42.700Z,25.67
2023-03-10T10:17:58.626Z,30.00
2023-03-10T10:21:18.734Z,22.73
2023-03-10T10:24:21.789Z,30.95
2023-03-10T10:27:25.574Z,22.40
2023-03-10T10:30:37.177Z,19.63
2023-03-10T10:34:01.692Z,19.25
2023-03-10T10:40:24.266Z,17.73
2023-03-10T10:43:26.753Z,18.33
2023-03-10T10:46:30.656Z,17.38
2023-03-10T10:52:36.494Z,17.33
2023-03-10T10:55:39.103Z,19.67
2023-03-10T10:58:42.996Z,21.88
2023-03-10T11:04:50.429Z,41.90
2023-03-10T11:07:53.134Z,34.13
2023-03-10T11:11:24.659Z,38.20
2023-03-10T11:14:30.025Z,42.13
2023-03-10T11:17:38.681Z,40.38
2023-03-10T11:20:47.273Z,53.10
2023-03-10T11:24:04.490Z,23.08
2023-03-10T11:27:36.174Z,20.40
2023-03-10T11:30:39.936Z,34.42
2023-03-10T11:34:04.056Z,33.65
2023-03-10T11:37:30.129Z,22.55
2023-03-10T11:40:54.324Z,25.95
2023-03-10T11:44:02.174Z,23.30
2023-03-10T11:47:12.759Z,47.30
2023-03-10T11:50:42.545Z,31.92
2023-03-10T11:53:50.913Z,22.55
2023-03-10T11:56:53.874Z,24.35
2023-03-10T11:59:58.853Z,62.92
2023-03-10T12:03:27.747Z,53.67
2023-03-10T12:06:37.415Z,27.08
2023-03-10T12:09:50.862Z,23.85
2023-03-10T12:12:54.640Z,16.05
2023-03-10T12:16:02.183Z,72.82
2023-03-10T12:19:06.589Z,39.15
2023-03-10T12:22:38.834Z,20.15
2023-03-10T12:25:43.922Z,22.95
2023-03-10T12:28:46.279Z,22.67
2023-03-10T12:31:51.697Z,25.65
2023-03-10T12:35:23.112Z,25.02
2023-03-10T12:38:47.144Z,19.95
2023-03-10T12:41:50.655Z,19.80
2023-03-10T12:44:58.207Z,17.10
2023-03-10T12:48:22.359Z,23.73
2023-03-10T12:51:26.391Z,27.73
2023-03-10T12:57:49.649Z,38.40
2023-03-10T13:00:57.522Z,20.95
2023-03-10T13:04:00.180Z,21.67
2023-03-10T13:07:04.254Z,24.00
2023-03-10T13:13:10.238Z,26.17
2023-03-10T13:16:21.283Z,41.53
2023-03-10T13:19:25.870Z,22.33
2023-03-10T13:22:28.957Z,27.73
2023-03-10T13:25:33.948Z,51.63
2023-03-10T13:28:36.552Z,117.57
2023-03-10T13:31:39.031Z,42.58
2023-03-10T13:34:41.379Z,17.58
2023-03-10T13:37:43.724Z,17.17
2023-03-10T13:40:52.107Z,27.58
2023-03-10T13:43:55.558Z,29.10
2023-03-10T13:47:00.902Z,15.98
2023-03-10T13:50:03.620Z,24.02
2023-03-10T13:53:05.930Z,30.23
2023-03-10T13:56:48.691Z,32.28
2023-03-10T13:59:51.573Z,33.00
2023-03-10T14:02:54.323Z,64.45
2023-03-10T14:05:56.653Z,76.32
2023-03-10T14:09:14.092Z,29.58
2023-03-10T14:12:37.238Z,38.10
2023-03-10T14:15:39.806Z,27.08
2023-03-10T14:18:44.039Z,25.55
2023-03-10T14:22:00.295Z,19.35
2023-03-10T14:25:12.457Z,26.30
2023-03-10T14:28:18.212Z,23.17
2023-03-10T14:31:23.213Z,30.30
2023-03-10T14:34:26.479Z,34.40
2023-03-10T14:37:28.831Z,50.43
2023-03-10T14:40:32.072Z,67.53
2023-03-10T14:43:35.685Z,30.95
2023-03-10T14:46:38.433Z,43.70
2023-03-10T14:49:40.911Z,60.33
2023-03-10T14:52:43.259Z,39.55
2023-03-10T14:55:50.156Z,31.58
2023-03-10T14:58:53.783Z,30.00
2023-03-10T15:01:57.253Z,57.30
2023-03-10T15:04:59.630Z,82.00
2023-03-10T15:08:05.212Z,40.53
2023-03-10T15:11:08.406Z,29.00
2023-03-10T15:14:19.151Z,31.23
2023-03-10T15:17:22.402Z,30.10
2023-03-10T15:20:25.551Z,34.72
2023-03-10T15:23:28.723Z,57.88
2023-03-10T15:26:31.046Z,38.33
2023-03-10T15:29:33.449Z,42.75
2023-03-10T15:32:35.845Z,34.67
2023-03-10T15:35:39.091Z,39.97
2023-03-10T15:38:41.498Z,48.35
2023-03-10T15:41:44.026Z,57.97
2023-03-10T15:44:49.563Z,70.95
2023-03-10T15:47:52.028Z,62.28
2023-03-10T15:50:54.345Z,49.67
2023-03-10T15:53:56.727Z,51.17
2023-03-10T15:56:59.060Z,41.95
2023-03-10T16:00:01.638Z,41.95
2023-03-10T16:03:04.054Z,51.40
2023-03-10T16:06:06.733Z,47.58
2023-03-10T16:09:09.221Z,41.10
2023-03-10T16:12:11.766Z,40.40
2023-03-10T16:15:17.960Z,35.33
2023-03-10T16:18:20.693Z,42.05
2023-03-10T16:21:23.116Z,46.85
2023-03-10T16:24:25.610Z,50.70
2023-03-10T16:27:28.204Z,78.50
2023-03-10T16:30:30.716Z,51.60
2023-03-10T16:33:33.304Z,58.05
2023-03-10T16:36:36.891Z,50.30
2023-03-10T16:39:39.474Z,50.50
2023-03-10T16:42:45.693Z,53.47
2023-03-10T16:45:51.106Z,71.78
2023-03-10T16:48:55.085Z,53.67
2023-03-10T16:51:57.396Z,66.13
2023-03-10T16:55:01.697Z,78.18
2023-03-10T16:58:04.193Z,65.10
2023-03-10T17:01:06.819Z,42.03
2023-03-10T17:04:09.208Z,42.03
2023-03-10T17:07:11.693Z,51.55
2023-03-10T17:10:13.992Z,50.33
2023-03-10T17:13:16.339Z,46.70
2023-03-10T17:16:19.393Z,45.90
2023-03-10T17:19:30.331Z,34.65
2023-03-10T17:22:32.792Z,47.83
2023-03-10T17:25:35.729Z,55.92
2023-03-10T17:28:39.213Z,39.47
2023-03-10T17:31:43.973Z,46.42
2023-03-10T17:34:52.058Z,39.72
2023-03-10T17:37:54.515Z,37.33
2023-03-10T17:40:56.856Z,37.78
2023-03-10T17:43:59.272Z,39.97
2023-03-10T17:47:01.697Z,38.03
2023-03-10T17:50:05.143Z,41.13
2023-03-10T17:53:07.447Z,42.83
2023-03-10T17:56:10.290Z,39.20
2023-03-10T17:59:16.604Z,50.30
2023-03-10T18:02:18.975Z,43.13
2023-03-10T18:05:21.364Z,44.97
2023-03-10T18:08:23.888Z,36.65
2023-03-10T18:11:26.926Z,33.88
2023-03-10T18:14:29.343Z,25.30
2023-03-10T18:17:31.746Z,31.83
2023-03-10T18:20:36.491Z,31.60
2023-03-10T18:23:39.100Z,36.63
2023-03-10T18:26:45.415Z,31.45
2023-03-10T18:29:48.005Z,32.97
2023-03-10T18:32:50.526Z,37.38
2023-03-10T18:35:53.076Z,38.60
2023-03-10T18:38:56.310Z,43.70
2023-03-10T18:41:58.755Z,47.10
2023-03-10T18:45:01.207Z,37.63
2023-03-10T18:48:03.570Z,32.92
2023-03-10T18:51:06.375Z,31.60
2023-03-10T18:54:08.804Z,37.90
2023-03-10T18:57:11.764Z,42.47
2023-03-10T19:00:15.654Z,32.33
2023-03-10T19:03:19.237Z,43.38
2023-03-10T19:06:22.008Z,40.80
2023-03-10T19:09:24.608Z,42.78
2023-03-10T19:12:28.682Z,38.38
2023-03-10T19:15:31.128Z,41.38
2023-03-10T19:18:33.586Z,36.88
2023-03-10T19:21:37.168Z,39.47
2023-03-10T19:24:39.944Z,38.95
2023-03-10T19:27:42.534Z,35.80
2023-03-10T19:30:44.940Z,44.92
2023-03-10T19:33:47.343Z,74.65
2023-03-10T19:36:49.744Z,47.92
2023-03-10T19:39:52.114Z,31.85
2023-03-10T19:42:54.560Z,30.60
2023-03-10T19:46:07.872Z,39.15
2023-03-10T19:49:10.224Z,40.87
2023-03-10T19:52:12.684Z,53.25
2023-03-10T19:55:19.749Z,47.13
2023-03-10T19:58:23.110Z,42.53
2023-03-10T20:01:27.000Z,31.70
2023-03-10T20:07:34.499Z,31.33
2023-03-10T20:10:36.862Z,30.52
2023-03-10T20:13:39.652Z,51.22
2023-03-10T20:16:42.058Z,44.67
2023-03-10T20:19:44.573Z,46.03
2023-03-10T20:22:49.563Z,37.78
2023-03-10T20:25:51.896Z,47.80
2023-03-10T20:28:54.452Z,46.78
2023-03-10T20:31:56.824Z,45.03
2023-03-10T20:34:59.266Z,41.85
2023-03-10T20:38:02.287Z,49.97
2023-03-10T20:41:04.817Z,33.50
2023-03-10T20:44:09.697Z,44.55
2023-03-10T20:47:12.150Z,39.30
2023-03-10T20:50:16.040Z,33.15
2023-03-10T20:56:20.781Z,30.33
2023-03-10T20:59:23.387Z,31.33
2023-03-10T21:02:25.826Z,30.95
2023-03-10T21:05:29.132Z,35.22
2023-03-10T21:08:31.581Z,28.70
2023-03-10T21:11:35.235Z,40.05
2023-03-10T21:14:37.584Z,35.35
2023-03-10T21:17:39.893Z,31.00
2023-03-10T21:20:42.446Z,29.50
2023-03-10T21:23:44.824Z,36.80
2023-03-10T21:26:47.370Z,35.33
2023-03-10T21:29:49.823Z,30.52
2023-03-10T21:32:52.237Z,29.20
2023-03-10T21:35:54.586Z,34.20
2023-03-10T21:38:57.369Z,30.15
2023-03-10T21:41:59.672Z,29.73
2023-03-10T21:45:02.087Z,25.77
2023-03-10T21:48:05.083Z,28.60
2023-03-10T21:51:09.899Z,27.00
2023-03-10T21:54:12.402Z,31.83
2023-03-10T21:57:14.719Z,30.10
2023-03-10T22:00:19.466Z,30.60
2023-03-10T22:03:22.024Z,31.17
2023-03-10T22:06:24.573Z,34.42
2023-03-10T22:09:28.578Z,33.53
2023-03-10T22:12:31.012Z,33.28
2023-03-10T22:15:33.514Z,36.25
2023-03-10T22:18:35.780Z,32.72
2023-03-10T22:21:38.454Z,32.13
2023-03-10T22:24:41.744Z,30.20
2023-03-10T22:27:46.125Z,31.45
2023-03-10T22:30:48.450Z,33.15
2023-03-10T22:33:50.942Z,35.55
2023-03-10T22:36:53.645Z,28.45
2023-03-10T22:39:55.981Z,28.63
2023-03-10T22:42:58.874Z,30.02
2023-03-10T22:46:17.260Z,34.53
2023-03-10T22:49:19.714Z,32.03
2023-03-10T22:52:22.077Z,30.85
2023-03-10T22:55:25.177Z,29.92
2023-03-10T22:58:28.125Z,23.98
2023-03-10T23:01:30.996Z,30.50
2023-03-10T23:04:33.401Z,33.27
2023-03-10T23:07:35.767Z,32.92
2023-03-10T23:10:38.933Z,35.15
2023-03-10T23:13:41.899Z,36.20
2023-03-10T23:16:44.269Z,36.43
2023-03-10T23:19:51.300Z,34.20
2023-03-10T23:22:54.382Z,30.77
2023-03-10T23:25:56.965Z,28.97
2023-03-10T23:28:59.290Z,37.92
2023-03-10T23:32:01.589Z,31.15
2023-03-10T23:35:09.116Z,33.58
2023-03-10T23:38:11.599Z,31.50
2023-03-10T23:41:14.303Z,28.42
2023-03-10T23:44:16.727Z,30.90
2023-03-10T23:47:19.043Z,32.55
2023-03-10T23:50:26.871Z,32.30
2023-03-10T23:53:29.438Z,31.52
2023-03-10T23:56:31.950Z,34.88
2023-03-10T23:59:34.403Z,32.22
